Giove Jet — IJNX — position and weather

sailwx.info

Track history (hours):
 
Tides and Currents Weather Stations Pressure Air Temp Water Temp Dewpoint Dewpoint Depression Visibility Wind Speed Wind Dir Waves Ship Positions

Giove Jet

Last reported at 2016-Apr-29 13:27 UTC. Time now 2016-May-03 14:20 UTC.
Position N 40°50' E 014°13'.

Length 33 m; draft 1.2 m.

MMSI: 247049500.

Date/timePositionNaut miles runAvg speedWind from/ knotsBaromVisibWave heightAir tempDewpointWater temp
2016-Apr-29 13:27N 40°50' E 014°13'3 3.0
2016-Apr-29 12:33N 40°47' E 014°12'1212.2
2016-Apr-29 11:33N 40°45' E 013°56'1211.7
2016-Apr-29 10:33N 40°47' E 014°12'5 4.6
2016-Apr-29 09:32N 40°50' E 014°16'2 0.1
2016-Apr-28 16:12N 40°50' E 014°13'3 4.1
2016-Apr-28 15:34N 40°49' E 014°17'1616.0
2016-Apr-28 14:33N 40°45' E 013°56'13 6.6
2016-Apr-28 12:34N 40°48' E 014°13'7 7.4
2016-Apr-28 11:34N 40°47' E 014°04'1010.1
2016-Apr-28 10:33N 40°50' E 014°16'1616.0
2016-Apr-28 09:34N 40°45' E 013°56'1 0.6
2016-Apr-28 08:34N 40°45' E 013°57'1510.1
2016-Apr-28 07:04N 40°50' E 014°16'2 0.0
2016-Apr-26 13:28N 40°50' E 014°13'3 3.1
2016-Apr-26 12:33N 40°47' E 014°12'1212.0
2016-Apr-26 11:33N 40°45' E 013°56'1212.0
2016-Apr-26 10:34N 40°47' E 014°12'4 3.3
2016-Apr-26 09:16N 40°50' E 014°16'2 2.9
2016-Apr-26 08:33N 40°50' E 014°13'0 0.0
2016-Apr-26 07:14N 40°50' E 014°13'0 0.2
2016-Apr-26 06:33N 40°50' E 014°14'0 0.0
2016-Apr-25 12:24N 40°50' E 014°13'0 0.0
2016-Apr-25 11:29N 40°50' E 014°13'0 0.0
2016-Apr-25 10:33N 40°50' E 014°13'0 0.0
2016-Apr-25 09:32N 40°50' E 014°13'0 0.0
2016-Apr-25 08:32N 40°50' E 014°13'0 0.0
2016-Apr-25 07:29N 40°50' E 014°13'  
2016-Apr-22 15:33N 40°50' E 014°17'1616.3
2016-Apr-22 14:33N 40°45' E 013°56'12 5.8
2016-Apr-22 12:33N 40°47' E 014°11'1211.6
2016-Apr-22 11:33N 40°45' E 013°56'1010.0
2016-Apr-22 10:34N 40°47' E 014°09'5 5.1
2016-Apr-22 09:33N 40°49' E 014°15'1 1.1
2016-Apr-22 08:18N 40°49' E 014°17'1622.1
2016-Apr-22 07:33N 40°45' E 013°56'0 0.0
2016-Apr-21 14:18N 40°45' E 013°56'16 9.2
2016-Apr-21 12:32N 40°50' E 014°17'1212.6
2016-Apr-21 11:33N 40°38' E 014°23'10 9.6
2016-Apr-21 10:33N 40°48' E 014°18'1414.3
2016-Apr-21 09:33N 40°33' E 014°14'1817.8
2016-Apr-21 08:33N 40°45' E 013°56'2121.1
2016-Apr-21 07:33N 40°38' E 014°23'0 0.1
2016-Apr-21 06:33N 40°38' E 014°23'1413.5
2016-Apr-21 05:33N 40°50' E 014°15'1515.3
2016-Apr-21 04:33N 40°45' E 013°56'0 0.0
2016-Apr-20 19:13N 40°45' E 013°56'1523.4
2016-Apr-20 18:34N 40°49' E 014°16'6 6.1
2016-Apr-20 17:34N 40°47' E 014°09'4 4.5
2016-Apr-20 16:34N 40°46' E 014°03'1010.4
2016-Apr-20 15:34N 40°49' E 014°16'1515.3
2016-Apr-20 14:33N 40°45' E 013°56'13 6.5
2016-Apr-20 12:34N 40°48' E 014°13'1313.0
2016-Apr-20 11:33N 40°45' E 013°56'1010.0
2016-Apr-20 10:34N 40°47' E 014°09'5 4.7
2016-Apr-20 09:34N 40°49' E 014°15'1 1.2
2016-Apr-20 08:28N 40°50' E 014°16'1617.3
2016-Apr-20 07:34N 40°45' E 013°56'0 0.3
2016-Apr-20 06:33N 40°45' E 013°57'  
Track history (hours):
 
Tides and Currents Weather Stations Pressure Air Temp Water Temp Dewpoint Dewpoint Depression Visibility Wind Speed Wind Dir Waves Ship Positions

Giove Jet

Last reported at 2016-Apr-29 13:27 UTC. Time now 2016-May-03 14:20 UTC.
Position N 40°50' E 014°13'.

Length 33 m; draft 1.2 m.

MMSI: 247049500.

Date/timePositionNaut miles runAvg speedWind from/ knotsBaromVisibWave heightAir tempDewpointWater temp
2016-Apr-29 13:27N 40°50' E 014°13'3 3.0
2016-Apr-29 12:33N 40°47' E 014°12'1212.2
2016-Apr-29 11:33N 40°45' E 013°56'1211.7
2016-Apr-29 10:33N 40°47' E 014°12'5 4.6
2016-Apr-29 09:32N 40°50' E 014°16'2 0.1
2016-Apr-28 16:12N 40°50' E 014°13'3 4.1
2016-Apr-28 15:34N 40°49' E 014°17'1616.0
2016-Apr-28 14:33N 40°45' E 013°56'13 6.6
2016-Apr-28 12:34N 40°48' E 014°13'7 7.4
2016-Apr-28 11:34N 40°47' E 014°04'1010.1
2016-Apr-28 10:33N 40°50' E 014°16'1616.0
2016-Apr-28 09:34N 40°45' E 013°56'1 0.6
2016-Apr-28 08:34N 40°45' E 013°57'1510.1
2016-Apr-28 07:04N 40°50' E 014°16'2 0.0
2016-Apr-26 13:28N 40°50' E 014°13'3 3.1
2016-Apr-26 12:33N 40°47' E 014°12'1212.0
2016-Apr-26 11:33N 40°45' E 013°56'1212.0
2016-Apr-26 10:34N 40°47' E 014°12'4 3.3
2016-Apr-26 09:16N 40°50' E 014°16'2 2.9
2016-Apr-26 08:33N 40°50' E 014°13'0 0.0
2016-Apr-26 07:14N 40°50' E 014°13'0 0.2
2016-Apr-26 06:33N 40°50' E 014°14'0 0.0
2016-Apr-25 12:24N 40°50' E 014°13'0 0.0
2016-Apr-25 11:29N 40°50' E 014°13'0 0.0
2016-Apr-25 10:33N 40°50' E 014°13'0 0.0
2016-Apr-25 09:32N 40°50' E 014°13'0 0.0
2016-Apr-25 08:32N 40°50' E 014°13'0 0.0
2016-Apr-25 07:29N 40°50' E 014°13'  
2016-Apr-22 15:33N 40°50' E 014°17'1616.3
2016-Apr-22 14:33N 40°45' E 013°56'12 5.8
2016-Apr-22 12:33N 40°47' E 014°11'1211.6
2016-Apr-22 11:33N 40°45' E 013°56'1010.0
2016-Apr-22 10:34N 40°47' E 014°09'5 5.1
2016-Apr-22 09:33N 40°49' E 014°15'1 1.1
2016-Apr-22 08:18N 40°49' E 014°17'1622.1
2016-Apr-22 07:33N 40°45' E 013°56'0 0.0
2016-Apr-21 14:18N 40°45' E 013°56'16 9.2
2016-Apr-21 12:32N 40°50' E 014°17'1212.6
2016-Apr-21 11:33N 40°38' E 014°23'10 9.6
2016-Apr-21 10:33N 40°48' E 014°18'1414.3
2016-Apr-21 09:33N 40°33' E 014°14'1817.8
2016-Apr-21 08:33N 40°45' E 013°56'2121.1
2016-Apr-21 07:33N 40°38' E 014°23'0 0.1
2016-Apr-21 06:33N 40°38' E 014°23'1413.5
2016-Apr-21 05:33N 40°50' E 014°15'1515.3
2016-Apr-21 04:33N 40°45' E 013°56'0 0.0
2016-Apr-20 19:13N 40°45' E 013°56'1523.4
2016-Apr-20 18:34N 40°49' E 014°16'6 6.1
2016-Apr-20 17:34N 40°47' E 014°09'4 4.5
2016-Apr-20 16:34N 40°46' E 014°03'1010.4
2016-Apr-20 15:34N 40°49' E 014°16'1515.3
2016-Apr-20 14:33N 40°45' E 013°56'13 6.5
2016-Apr-20 12:34N 40°48' E 014°13'1313.0
2016-Apr-20 11:33N 40°45' E 013°56'1010.0
2016-Apr-20 10:34N 40°47' E 014°09'5 4.7
2016-Apr-20 09:34N 40°49' E 014°15'1 1.2
2016-Apr-20 08:28N 40°50' E 014°16'1617.3
2016-Apr-20 07:34N 40°45' E 013°56'0 0.3
2016-Apr-20 06:33N 40°45' E 013°57'  

Dump ship's entire track history